createdAt,value
2018-07-20T00:01:29.647Z,6.40
2018-07-20T00:04:00.528Z,5.70
2018-07-20T00:06:31.434Z,6.43
2018-07-20T00:09:02.661Z,5.80
2018-07-20T00:11:33.892Z,5.40
2018-07-20T00:14:04.601Z,6.07
2018-07-20T00:16:35.354Z,6.07
2018-07-20T00:19:07.698Z,6.73
2018-07-20T00:21:38.437Z,5.70
2018-07-20T00:24:09.405Z,5.60
2018-07-20T00:26:40.097Z,6.33
2018-07-20T00:29:11.632Z,6.10
2018-07-20T00:31:42.511Z,5.63
2018-07-20T00:34:13.411Z,6.80
2018-07-20T00:36:44.175Z,6.83
2018-07-20T00:39:14.152Z,7.03
2018-07-20T00:41:45.141Z,6.70
2018-07-20T00:44:16.173Z,6.00
2018-07-20T00:46:46.921Z,6.50
2018-07-20T00:49:17.868Z,6.10
2018-07-20T00:51:48.513Z,6.10
2018-07-20T00:54:19.262Z,7.17
2018-07-20T00:56:50.285Z,6.40
2018-07-20T00:59:21.214Z,5.80
2018-07-20T01:01:52.101Z,5.90
2018-07-20T01:04:22.690Z,7.90
2018-07-20T01:06:53.575Z,6.47
2018-07-20T01:09:24.476Z,6.53
2018-07-20T01:11:55.702Z,6.17
2018-07-20T01:14:26.428Z,6.50
2018-07-20T01:16:57.170Z,6.57
2018-07-20T01:19:27.952Z,6.77
2018-07-20T01:21:58.649Z,6.57
2018-07-20T01:24:29.624Z,5.83
2018-07-20T01:27:00.809Z,6.40
2018-07-20T01:29:31.675Z,6.57
2018-07-20T01:32:02.199Z,6.27
2018-07-20T01:34:33.327Z,6.30
2018-07-20T01:37:04.216Z,6.00
2018-07-20T01:39:34.915Z,6.73
2018-07-20T01:42:05.859Z,6.40
2018-07-20T01:44:36.996Z,6.80
2018-07-20T01:47:07.669Z,7.40
2018-07-20T01:49:38.353Z,6.17
2018-07-20T01:52:08.942Z,6.47
2018-07-20T01:54:40.276Z,7.20
2018-07-20T01:57:11.659Z,6.90
2018-07-20T01:59:42.473Z,7.17
2018-07-20T02:02:13.675Z,7.20
2018-07-20T02:04:44.341Z,6.23
2018-07-20T02:07:14.845Z,7.00
2018-07-20T02:09:45.542Z,6.60
2018-07-20T02:12:16.883Z,6.37
2018-07-20T02:14:47.689Z,6.90
2018-07-20T02:17:18.464Z,7.17
2018-07-20T02:19:48.395Z,6.67
2018-07-20T02:22:19.839Z,7.50
2018-07-20T02:24:50.752Z,7.20
2018-07-20T02:27:21.965Z,6.93
2018-07-20T02:29:52.823Z,5.90
2018-07-20T02:32:23.574Z,6.50
2018-07-20T02:34:54.039Z,6.20
2018-07-20T02:37:24.775Z,6.70
2018-07-20T02:39:55.622Z,6.50
2018-07-20T02:42:26.717Z,7.23
2018-07-20T02:44:57.228Z,6.57
2018-07-20T02:47:27.696Z,7.00
2018-07-20T02:49:58.707Z,6.97
2018-07-20T02:52:29.218Z,7.43
2018-07-20T02:54:59.329Z,7.00
2018-07-20T02:57:29.465Z,6.50
2018-07-20T03:00:00.309Z,8.00
2018-07-20T03:02:30.734Z,6.73
2018-07-20T03:05:01.217Z,7.33
2018-07-20T03:07:31.880Z,7.30
2018-07-20T03:10:02.856Z,6.67
2018-07-20T03:12:33.110Z,7.03
2018-07-20T03:15:03.766Z,7.27
2018-07-20T03:17:34.725Z,7.20
2018-07-20T03:20:05.205Z,5.93
2018-07-20T03:22:35.769Z,6.77
2018-07-20T03:25:06.350Z,7.13
2018-07-20T03:27:37.036Z,6.37
2018-07-20T03:30:07.459Z,6.67
2018-07-20T03:32:37.824Z,6.97
2018-07-20T03:35:08.249Z,6.70
2018-07-20T03:37:38.682Z,7.10
2018-07-20T03:40:09.038Z,6.90
2018-07-20T03:42:39.666Z,7.97
2018-07-20T03:45:10.002Z,8.50
2018-07-20T03:47:40.590Z,8.50
2018-07-20T03:50:11.362Z,8.83
2018-07-20T03:52:41.890Z,8.80
2018-07-20T03:55:12.275Z,8.53
2018-07-20T03:57:42.730Z,8.10
2018-07-20T04:00:13.973Z,8.37
2018-07-20T04:02:44.347Z,8.30
2018-07-20T04:05:14.550Z,8.47
2018-07-20T04:07:45.052Z,8.30
2018-07-20T04:10:16.077Z,7.90
2018-07-20T04:12:48.293Z,8.40
2018-07-20T04:15:18.816Z,9.30
2018-07-20T04:17:49.654Z,8.87
2018-07-20T04:20:20.156Z,8.37
2018-07-20T04:22:50.661Z,8.10
2018-07-20T04:25:21.525Z,9.10
2018-07-20T04:27:53.381Z,8.20
2018-07-20T04:30:23.780Z,8.50
2018-07-20T04:32:54.555Z,9.20
2018-07-20T04:35:29.877Z,8.33
2018-07-20T04:38:00.258Z,9.00
2018-07-20T04:40:30.653Z,8.67
2018-07-20T04:43:01.141Z,9.43
2018-07-20T04:45:32.046Z,9.37
2018-07-20T04:48:02.617Z,9.03
2018-07-20T04:50:33.085Z,8.03
2018-07-20T04:53:03.506Z,8.80
2018-07-20T04:55:34.578Z,7.77
2018-07-20T04:58:04.902Z,9.57
2018-07-20T05:00:35.774Z,9.03
2018-07-20T05:03:11.577Z,8.30
2018-07-20T05:05:42.123Z,9.17
2018-07-20T05:08:12.655Z,8.80
2018-07-20T05:10:43.473Z,9.40
2018-07-20T05:13:14.125Z,8.37
2018-07-20T05:15:44.864Z,7.40
2018-07-20T05:18:15.342Z,8.47
2018-07-20T05:20:46.315Z,8.67
2018-07-20T05:23:16.909Z,8.40
2018-07-20T05:25:47.548Z,8.30
2018-07-20T05:28:18.554Z,8.00
2018-07-20T05:30:48.934Z,8.23
2018-07-20T05:33:19.724Z,8.07
2018-07-20T05:35:51.729Z,7.93
2018-07-20T05:38:22.166Z,8.40
2018-07-20T05:40:52.543Z,7.73
2018-07-20T05:43:23.076Z,8.20
2018-07-20T05:45:54.013Z,8.40
2018-07-20T05:48:24.716Z,7.20
2018-07-20T05:50:55.093Z,7.53
2018-07-20T05:53:25.802Z,8.67
2018-07-20T05:55:56.725Z,8.33
2018-07-20T05:58:27.284Z,8.67
2018-07-20T06:00:57.653Z,8.13
2018-07-20T06:03:27.999Z,7.70
2018-07-20T06:05:58.498Z,8.00
2018-07-20T06:08:28.979Z,8.17
2018-07-20T06:10:59.508Z,8.40
2018-07-20T06:13:29.925Z,8.43
2018-07-20T06:16:00.923Z,8.77
2018-07-20T06:18:31.401Z,9.57
2018-07-20T06:21:01.899Z,7.27
2018-07-20T06:23:32.635Z,8.50
2018-07-20T06:26:03.827Z,8.40
2018-07-20T06:28:34.274Z,8.40
2018-07-20T06:31:04.714Z,8.00
2018-07-20T06:33:35.205Z,8.60
2018-07-20T06:36:05.676Z,7.83
2018-07-20T06:38:36.150Z,7.37
2018-07-20T06:41:07.033Z,7.93
2018-07-20T06:43:37.428Z,7.63
2018-07-20T06:46:08.379Z,7.60
2018-07-20T06:48:39.132Z,8.10
2018-07-20T06:51:09.858Z,7.20
2018-07-20T06:53:40.353Z,7.33
2018-07-20T06:56:11.157Z,7.40
2018-07-20T06:58:41.723Z,7.60
2018-07-20T07:01:12.319Z,8.50
2018-07-20T07:03:42.689Z,8.43
2018-07-20T07:06:13.158Z,8.27
2018-07-20T07:08:43.752Z,7.60
2018-07-20T07:11:14.645Z,7.87
2018-07-20T07:13:45.196Z,7.60
2018-07-20T07:16:15.716Z,8.60
2018-07-20T07:18:46.309Z,8.00
2018-07-20T07:21:16.853Z,8.10
2018-07-20T07:23:47.414Z,8.77
2018-07-20T07:26:17.821Z,8.30
2018-07-20T07:28:48.449Z,9.27
2018-07-20T07:31:19.043Z,7.20
2018-07-20T07:33:49.601Z,7.40
2018-07-20T07:36:20.555Z,7.00
2018-07-20T07:38:51.212Z,9.47
2018-07-20T07:41:21.786Z,7.77
2018-07-20T07:43:52.945Z,6.70
2018-07-20T07:46:23.959Z,7.80
2018-07-20T07:48:54.597Z,8.03
2018-07-20T07:51:25.162Z,7.40
2018-07-20T07:53:56.181Z,7.37
2018-07-20T07:56:28.943Z,7.30
2018-07-20T07:58:59.435Z,7.00
2018-07-20T08:01:29.544Z,6.30
2018-07-20T08:04:00.125Z,6.70
2018-07-20T08:06:30.557Z,7.63
2018-07-20T08:09:01.097Z,6.40
2018-07-20T08:11:31.574Z,7.07
2018-07-20T08:14:02.602Z,6.87
2018-07-20T08:16:33.463Z,6.23
2018-07-20T08:19:04.397Z,6.80
2018-07-20T08:21:40.343Z,6.90
2018-07-20T08:24:10.983Z,6.83
2018-07-20T08:26:41.488Z,6.47
2018-07-20T08:29:12.337Z,6.47
2018-07-20T08:31:43.009Z,6.50
2018-07-20T08:34:13.580Z,6.67
2018-07-20T08:36:43.966Z,6.17
2018-07-20T08:39:14.492Z,6.23
2018-07-20T08:41:44.813Z,6.00
2018-07-20T08:44:16.277Z,6.30
2018-07-20T08:46:46.937Z,6.60
2018-07-20T08:49:17.534Z,6.63
2018-07-20T08:51:48.260Z,6.30
2018-07-20T08:54:18.686Z,6.43
2018-07-20T08:56:49.157Z,5.87
2018-07-20T08:59:19.425Z,5.93
2018-07-20T09:01:50.488Z,5.53
2018-07-20T09:04:20.901Z,5.57
2018-07-20T09:06:51.894Z,6.40
2018-07-20T09:09:22.558Z,5.57
2018-07-20T09:11:54.733Z,6.93
2018-07-20T09:14:25.190Z,6.50
2018-07-20T09:16:55.141Z,6.30
2018-07-20T09:19:25.800Z,6.00
2018-07-20T09:21:56.230Z,5.43
2018-07-20T09:24:26.670Z,5.33
2018-07-20T09:26:57.138Z,5.60
2018-07-20T09:29:28.504Z,5.80
2018-07-20T09:31:58.840Z,6.40
2018-07-20T09:34:29.438Z,6.10
2018-07-20T09:36:59.723Z,5.43
2018-07-20T09:39:30.142Z,5.70
2018-07-20T09:42:00.665Z,5.73
2018-07-20T09:44:31.119Z,5.20
2018-07-20T09:47:01.870Z,5.90
2018-07-20T09:49:32.609Z,5.50
2018-07-20T09:52:03.261Z,5.33
2018-07-20T09:54:34.113Z,4.90
2018-07-20T09:57:04.897Z,5.50
2018-07-20T09:59:35.491Z,5.57
2018-07-20T10:02:05.868Z,5.23
2018-07-20T10:04:36.358Z,5.40
2018-07-20T10:07:07.229Z,5.13
2018-07-20T10:09:37.934Z,5.63
2018-07-20T10:12:08.932Z,5.50
2018-07-20T10:14:39.308Z,6.37
2018-07-20T10:17:10.214Z,6.17
2018-07-20T10:19:40.785Z,5.87
2018-07-20T10:22:11.409Z,6.03
2018-07-20T10:24:41.828Z,5.57
2018-07-20T10:27:12.230Z,5.10
2018-07-20T10:29:43.017Z,5.97
2018-07-20T10:32:13.576Z,6.50
2018-07-20T10:34:44.053Z,5.60
2018-07-20T10:37:15.353Z,6.00
2018-07-20T10:39:46.026Z,6.10
2018-07-20T10:42:16.333Z,5.23
2018-07-20T10:44:48.981Z,5.30
2018-07-20T10:47:19.878Z,5.40
2018-07-20T10:49:51.291Z,5.47
2018-07-20T10:52:21.811Z,5.53
2018-07-20T10:54:52.154Z,5.00
2018-07-20T10:57:23.090Z,5.00
2018-07-20T10:59:53.633Z,5.63
2018-07-20T11:02:24.106Z,5.63
2018-07-20T11:04:54.699Z,5.47
2018-07-20T11:07:25.485Z,5.80
2018-07-20T11:09:55.940Z,5.03
2018-07-20T11:12:26.492Z,5.30
2018-07-20T11:14:57.544Z,5.40
2018-07-20T11:17:28.165Z,5.33
2018-07-20T11:19:58.575Z,5.13
2018-07-20T11:22:29.900Z,5.80
2018-07-20T11:25:00.469Z,4.67
2018-07-20T11:27:31.164Z,5.73
2018-07-20T11:30:01.622Z,5.80
2018-07-20T11:32:32.088Z,5.50
2018-07-20T11:35:02.598Z,5.73
2018-07-20T11:37:33.117Z,5.67
2018-07-20T11:40:03.947Z,5.33
2018-07-20T11:42:34.312Z,6.33
2018-07-20T11:45:04.977Z,5.83
2018-07-20T11:47:35.405Z,5.50
2018-07-20T11:50:06.341Z,5.90
2018-07-20T11:52:37.386Z,5.17
2018-07-20T11:55:07.975Z,6.20
2018-07-20T11:57:38.214Z,5.60
2018-07-20T12:00:09.059Z,5.80
2018-07-20T12:02:39.736Z,6.13
2018-07-20T12:05:10.147Z,6.10
2018-07-20T12:07:40.491Z,6.20
2018-07-20T12:10:10.905Z,6.30
2018-07-20T12:12:41.165Z,5.63
2018-07-20T12:15:11.913Z,6.77
2018-07-20T12:17:42.549Z,6.03
2018-07-20T12:20:12.849Z,5.37
2018-07-20T12:22:45.621Z,5.50
2018-07-20T12:25:16.343Z,6.00
2018-07-20T12:27:46.746Z,6.30
2018-07-20T12:30:17.513Z,6.33
2018-07-20T12:32:48.064Z,6.20
2018-07-20T12:35:18.521Z,6.30
2018-07-20T12:37:48.911Z,5.83
2018-07-20T12:40:19.154Z,6.47
2018-07-20T12:42:49.669Z,6.00
2018-07-20T12:45:20.890Z,5.97
2018-07-20T12:47:51.318Z,6.43
2018-07-20T12:50:21.536Z,5.70
2018-07-20T12:52:51.880Z,6.40
2018-07-20T12:55:22.694Z,6.30
2018-07-20T12:57:53.201Z,5.97
2018-07-20T13:00:23.997Z,6.00
2018-07-20T13:02:54.586Z,6.23
2018-07-20T13:05:24.961Z,6.60
2018-07-20T13:08:00.595Z,6.07
2018-07-20T13:10:31.005Z,6.50
2018-07-20T13:13:01.616Z,6.07
2018-07-20T13:15:32.210Z,6.00
2018-07-20T13:18:02.773Z,6.00
2018-07-20T13:20:33.428Z,6.10
2018-07-20T13:23:04.208Z,6.00
2018-07-20T13:25:35.170Z,5.83
2018-07-20T13:28:05.845Z,6.27
2018-07-20T13:30:37.578Z,6.30
2018-07-20T13:33:08.074Z,5.90
2018-07-20T13:35:38.442Z,6.10
2018-07-20T13:38:09.380Z,6.33
2018-07-20T13:40:41.577Z,6.10
2018-07-20T13:43:12.219Z,6.43
2018-07-20T13:45:43.142Z,6.43
2018-07-20T13:48:14.421Z,6.00
2018-07-20T13:50:44.974Z,6.23
2018-07-20T13:53:15.360Z,6.17
2018-07-20T13:55:45.828Z,6.40
2018-07-20T13:58:16.677Z,6.20
2018-07-20T14:00:47.252Z,6.10
2018-07-20T14:03:17.687Z,6.43
2018-07-20T14:05:48.283Z,6.60
2018-07-20T14:08:18.833Z,7.10
2018-07-20T14:10:49.428Z,6.20
2018-07-20T14:13:19.847Z,6.60
2018-07-20T14:15:50.584Z,6.57
2018-07-20T14:18:21.007Z,6.13
2018-07-20T14:20:51.777Z,6.73
2018-07-20T14:23:22.812Z,6.07
2018-07-20T14:25:53.497Z,6.40
2018-07-20T14:28:24.306Z,5.70
2018-07-20T14:30:54.379Z,6.37
2018-07-20T14:33:24.761Z,5.83
2018-07-20T14:35:55.570Z,6.70
2018-07-20T14:38:26.067Z,6.20
2018-07-20T14:40:56.423Z,5.80
2018-07-20T14:43:27.217Z,5.90
2018-07-20T14:45:57.845Z,5.93
2018-07-20T14:48:28.535Z,6.20
2018-07-20T14:50:59.529Z,6.40
2018-07-20T14:53:29.965Z,6.43
2018-07-20T14:56:00.460Z,6.40
2018-07-20T14:58:30.861Z,6.10
2018-07-20T15:01:01.268Z,6.37
2018-07-20T15:03:31.556Z,6.27
2018-07-20T15:06:02.085Z,6.20
2018-07-20T15:08:32.355Z,5.93
2018-07-20T15:11:02.710Z,6.03
2018-07-20T15:13:33.009Z,6.20
2018-07-20T15:16:03.956Z,6.00
2018-07-20T15:18:34.257Z,6.07
2018-07-20T15:21:04.557Z,5.83
2018-07-20T15:23:35.281Z,6.57
2018-07-20T15:26:05.925Z,5.90
2018-07-20T15:28:36.526Z,5.97
2018-07-20T15:31:07.863Z,6.50
2018-07-20T15:33:38.163Z,6.07
2018-07-20T15:36:09.105Z,6.40
2018-07-20T15:38:39.613Z,6.17
2018-07-20T15:41:10.272Z,6.50
2018-07-20T15:43:41.914Z,6.30
2018-07-20T15:46:13.054Z,6.37
2018-07-20T15:48:44.086Z,6.23
2018-07-20T15:51:15.038Z,6.70
2018-07-20T15:53:45.573Z,6.63
2018-07-20T15:56:15.938Z,6.27
2018-07-20T15:58:46.640Z,6.50
2018-07-20T16:01:18.565Z,6.27
2018-07-20T16:03:49.170Z,6.67
2018-07-20T16:06:19.655Z,6.33
2018-07-20T16:08:50.218Z,7.10
2018-07-20T16:11:20.871Z,6.70
2018-07-20T16:13:52.009Z,6.63
2018-07-20T16:16:22.521Z,6.40
2018-07-20T16:18:53.065Z,7.17
2018-07-20T16:21:23.937Z,7.47
2018-07-20T16:23:54.416Z,7.17
2018-07-20T16:26:24.538Z,7.20
2018-07-20T16:28:55.245Z,7.37
2018-07-20T16:31:25.605Z,6.97
2018-07-20T16:33:56.542Z,7.50
2018-07-20T16:36:27.117Z,6.60
2018-07-20T16:38:57.590Z,7.10
2018-07-20T16:41:28.001Z,7.40
2018-07-20T16:43:58.854Z,6.90
2018-07-20T16:46:29.628Z,7.30
2018-07-20T16:49:00.528Z,7.10
2018-07-20T16:51:31.328Z,7.43
2018-07-20T16:54:02.038Z,7.50
2018-07-20T16:56:32.438Z,8.50
2018-07-20T16:59:02.911Z,8.70
2018-07-20T17:01:33.696Z,8.20
2018-07-20T17:04:04.454Z,7.70
2018-07-20T17:06:35.089Z,7.57
2018-07-20T17:09:08.119Z,8.33
2018-07-20T17:11:39.028Z,8.60
2018-07-20T17:14:09.534Z,7.60
2018-07-20T17:16:39.793Z,8.70
2018-07-20T17:19:10.564Z,8.07
2018-07-20T17:21:41.584Z,8.77
2018-07-20T17:24:12.161Z,8.13
2018-07-20T17:26:42.701Z,8.90
2018-07-20T17:29:13.357Z,8.10
2018-07-20T17:31:46.414Z,7.63
2018-07-20T17:34:16.866Z,8.43
2018-07-20T17:36:47.634Z,8.40
2018-07-20T17:39:18.206Z,8.70
2018-07-20T17:41:49.863Z,8.40
2018-07-20T17:44:20.068Z,9.57
2018-07-20T17:46:50.565Z,8.07
2018-07-20T17:49:21.539Z,8.27
2018-07-20T17:51:52.108Z,7.83
2018-07-20T17:54:22.673Z,8.03
2018-07-20T17:56:53.001Z,8.00
2018-07-20T17:59:23.935Z,8.37
2018-07-20T18:01:54.459Z,8.00
2018-07-20T18:04:25.117Z,7.80
2018-07-20T18:06:55.589Z,7.90
2018-07-20T18:09:26.030Z,7.57
2018-07-20T18:11:56.349Z,7.93
2018-07-20T18:14:28.301Z,7.80
2018-07-20T18:16:58.816Z,8.00
2018-07-20T18:19:29.280Z,8.30
2018-07-20T18:22:00.052Z,8.20
2018-07-20T18:24:30.477Z,7.47
2018-07-20T18:27:01.054Z,8.30
2018-07-20T18:29:32.009Z,8.57
2018-07-20T18:32:02.814Z,7.80
2018-07-20T18:34:33.695Z,8.30
2018-07-20T18:37:04.288Z,8.73
2018-07-20T18:39:34.669Z,7.93
2018-07-20T18:42:05.331Z,8.30
2018-07-20T18:44:35.517Z,8.13
2018-07-20T18:47:06.040Z,8.40
2018-07-20T18:49:37.161Z,7.43
2018-07-20T18:52:07.566Z,8.63
2018-07-20T18:54:37.991Z,8.20
2018-07-20T18:57:12.355Z,8.00
2018-07-20T18:59:43.080Z,8.63
2018-07-20T19:02:13.562Z,8.50
2018-07-20T19:04:43.965Z,8.40
2018-07-20T19:07:15.859Z,8.30
2018-07-20T19:09:46.253Z,9.33
2018-07-20T19:12:16.643Z,8.80
2018-07-20T19:14:47.445Z,8.30
2018-07-20T19:17:18.137Z,8.30
2018-07-20T19:19:48.565Z,8.73
2018-07-20T19:22:20.593Z,7.90
2018-07-20T19:24:51.075Z,9.20
2018-07-20T19:27:21.698Z,9.17
2018-07-20T19:29:52.599Z,8.67
2018-07-20T19:32:23.179Z,8.10
2018-07-20T19:34:53.719Z,9.83
2018-07-20T19:37:25.329Z,8.77
2018-07-20T19:40:06.023Z,9.43
2018-07-20T19:42:49.543Z,9.77
2018-07-20T19:45:20.749Z,10.00
2018-07-20T19:47:51.368Z,10.40
2018-07-20T19:50:22.305Z,10.97
2018-07-20T19:52:52.408Z,10.93
2018-07-20T19:55:22.862Z,10.20
2018-07-20T19:57:52.757Z,9.50
2018-07-20T20:00:25.581Z,10.53
2018-07-20T20:02:56.650Z,10.63
2018-07-20T20:05:27.844Z,10.83
2018-07-20T20:07:58.580Z,11.53
2018-07-20T20:10:30.952Z,11.37
2018-07-20T20:13:02.513Z,11.90
2018-07-20T20:15:33.198Z,10.93
2018-07-20T20:18:03.940Z,12.10
2018-07-20T20:20:34.561Z,11.53
2018-07-20T20:23:05.616Z,11.70
2018-07-20T20:25:36.741Z,11.70
2018-07-20T20:28:07.658Z,11.77
2018-07-20T20:30:38.541Z,11.67
2018-07-20T20:33:08.988Z,11.00
2018-07-20T20:35:39.689Z,10.80
2018-07-20T20:38:10.493Z,12.07
2018-07-20T20:40:41.488Z,11.33
2018-07-20T20:43:12.329Z,11.87
2018-07-20T20:45:43.456Z,10.90
2018-07-20T20:48:13.996Z,11.53
2018-07-20T20:50:44.586Z,10.57
2018-07-20T20:53:15.220Z,10.70
2018-07-20T20:55:46.130Z,10.70
2018-07-20T20:58:16.923Z,10.00
2018-07-20T21:00:47.883Z,9.60
2018-07-20T21:03:18.325Z,10.70
2018-07-20T21:05:48.883Z,10.30
2018-07-20T21:08:19.528Z,9.70
2018-07-20T21:10:49.938Z,10.00
2018-07-20T21:13:20.369Z,10.93
2018-07-20T21:15:51.372Z,10.90
2018-07-20T21:18:21.740Z,11.80
2018-07-20T21:20:52.225Z,11.17
2018-07-20T21:23:22.524Z,11.70
2018-07-20T21:25:52.954Z,11.37
2018-07-20T21:28:23.222Z,12.33
2018-07-20T21:30:53.758Z,12.77
2018-07-20T21:33:24.601Z,11.60
2018-07-20T21:35:55.142Z,10.57
2018-07-20T21:38:25.142Z,11.33
2018-07-20T21:40:55.629Z,10.97
2018-07-20T21:43:26.349Z,11.60
2018-07-20T21:45:56.618Z,11.90
2018-07-20T21:48:28.520Z,10.63
2018-07-20T21:50:58.802Z,11.33
2018-07-20T21:53:28.985Z,11.30
2018-07-20T21:55:59.677Z,10.40
2018-07-20T21:58:30.062Z,11.23
2018-07-20T22:01:00.868Z,11.13
2018-07-20T22:03:31.307Z,11.33
2018-07-20T22:06:02.346Z,11.33
2018-07-20T22:11:26.138Z,11.40
2018-07-20T22:13:57.053Z,11.10
2018-07-20T22:16:27.651Z,10.47
2018-07-20T22:18:58.358Z,10.93
2018-07-20T22:21:28.709Z,11.37
2018-07-20T22:23:59.216Z,10.57
2018-07-20T22:26:29.957Z,12.70
2018-07-20T22:29:00.634Z,11.37
2018-07-20T22:31:31.098Z,11.70
2018-07-20T22:34:02.125Z,11.73
2018-07-20T22:36:32.744Z,10.87
2018-07-20T22:39:04.445Z,9.93
2018-07-20T22:41:35.470Z,11.47
2018-07-20T22:44:05.814Z,11.70
2018-07-20T22:46:36.544Z,11.30
2018-07-20T22:49:07.075Z,10.73
2018-07-20T22:51:38.210Z,11.67
2018-07-20T22:54:08.811Z,11.40
2018-07-20T22:56:39.314Z,12.53
2018-07-20T22:59:09.900Z,11.20
2018-07-20T23:01:40.821Z,11.83
2018-07-20T23:04:11.285Z,11.17
2018-07-20T23:06:42.140Z,10.57
2018-07-20T23:09:12.700Z,11.00
2018-07-20T23:11:43.092Z,11.10
2018-07-20T23:14:13.635Z,10.77
2018-07-20T23:16:44.247Z,10.30
2018-07-20T23:19:15.019Z,10.97
2018-07-20T23:21:46.712Z,10.90
2018-07-20T23:24:17.172Z,10.53
2018-07-20T23:26:49.453Z,10.30
2018-07-20T23:29:19.821Z,10.67
2018-07-20T23:31:50.617Z,11.47
2018-07-20T23:34:20.753Z,10.70
2018-07-20T23:36:51.355Z,11.40
2018-07-20T23:39:21.701Z,11.77
2018-07-20T23:41:52.178Z,11.60
2018-07-20T23:44:22.808Z,11.47
2018-07-20T23:46:53.219Z,10.97
2018-07-20T23:49:23.965Z,11.50
2018-07-20T23:51:54.641Z,12.00
2018-07-20T23:54:24.971Z,11.60
2018-07-20T23:56:55.522Z,11.20
2018-07-20T23:59:25.931Z,11.27
